Time;durP1;ratioP1;P1;durP2;ratioP2;P2;SDS_P1;SDS_P2;PMS_P1;PMS_P2;Temp;Humidity;BMP_temperature;BMP_pressure;BME280_temperature;BME280_humidity;BME280_pressure;Samples;Min_cycle;Max_cycle;Signal;HPM_P1;HPM_P2
2024/01/11 00:01:19;;;;;;;8.97;3.57;;;;;;;-6.44;100.00;101809.22;4968888;28;20479;-66
2024/01/11 00:03:45;;;;;;;6.50;3.63;;;;;;;-6.45;100.00;101811.63;4966320;28;20453;-67
2024/01/11 00:06:11;;;;;;;8.23;3.60;;;;;;;-6.48;100.00;101804.50;4970103;28;20437;-67
2024/01/11 00:08:38;;;;;;;9.07;3.10;;;;;;;-6.51;100.00;101808.44;4963812;28;20493;-67
2024/01/11 00:11:05;;;;;;;8.07;3.33;;;;;;;-6.49;100.00;101809.50;4969363;28;20469;-67
2024/01/11 00:13:31;;;;;;;14.10;4.60;;;;;;;-6.49;100.00;101813.00;4970523;28;20507;-67
2024/01/11 00:15:57;;;;;;;12.27;3.53;;;;;;;-6.53;100.00;101815.09;4969890;28;20535;-67
2024/01/11 00:18:24;;;;;;;9.33;2.93;;;;;;;-6.48;100.00;101806.16;4969144;28;20453;-67
2024/01/11 00:20:51;;;;;;;10.97;3.90;;;;;;;-6.42;100.00;101806.78;4968701;28;20471;-67
2024/01/11 00:23:18;;;;;;;7.10;3.57;;;;;;;-6.29;100.00;101816.72;4966423;28;20781;-66
2024/01/11 00:25:44;;;;;;;9.50;3.80;;;;;;;-6.29;100.00;101815.06;4969281;28;20950;-67
2024/01/11 00:28:11;;;;;;;8.50;3.50;;;;;;;-6.21;100.00;101819.31;4968635;28;20921;-67
2024/01/11 00:30:37;;;;;;;19.43;9.00;;;;;;;-6.27;100.00;101810.97;4968986;28;20457;-66
2024/01/11 00:33:03;;;;;;;19.00;8.50;;;;;;;-6.41;100.00;101818.94;4969776;28;20495;-67
2024/01/11 00:35:30;;;;;;;20.27;8.90;;;;;;;-6.52;100.00;101827.22;4968901;28;20925;-67
2024/01/11 00:37:57;;;;;;;24.00;10.67;;;;;;;-6.66;100.00;101826.72;4967046;28;20717;-67
2024/01/11 00:40:23;;;;;;;9.73;4.37;;;;;;;-6.77;100.00;101835.00;4969327;28;20456;-67
2024/01/11 00:42:49;;;;;;;21.60;8.67;;;;;;;-6.82;100.00;101832.66;4968791;28;20929;-67
2024/01/11 00:45:16;;;;;;;19.97;9.43;;;;;;;-6.83;100.00;101841.13;4968016;28;20459;-67
2024/01/11 00:47:42;;;;;;;20.20;9.07;;;;;;;-6.82;100.00;101840.38;4968092;28;20441;-67
2024/01/11 00:50:09;;;;;;;10.57;4.20;;;;;;;-6.72;100.00;101843.19;4969285;28;20523;-67
2024/01/11 00:52:36;;;;;;;12.47;4.10;;;;;;;-6.66;100.00;101841.25;4968301;28;20477;-67
2024/01/11 00:55:03;;;;;;;7.90;4.37;;;;;;;-6.68;100.00;101828.22;4962810;28;20463;-65
2024/01/11 00:57:29;;;;;;;20.67;8.20;;;;;;;-6.65;100.00;101841.41;4966977;28;20433;-68
2024/01/11 00:59:55;;;;;;;18.53;8.80;;;;;;;-6.75;100.00;101846.38;4967705;28;20477;-67
2024/01/11 01:02:22;;;;;;;23.20;9.87;;;;;;;-6.80;100.00;101850.13;4969476;28;20444;-67
2024/01/11 01:04:48;;;;;;;11.17;3.67;;;;;;;-6.90;100.00;101841.25;4967502;28;20456;-67
2024/01/11 01:07:15;;;;;;;18.37;7.63;;;;;;;-6.91;100.00;101845.47;4969053;28;20524;-67
2024/01/11 01:09:41;;;;;;;9.47;3.67;;;;;;;-6.87;100.00;101849.28;4968530;28;20952;-67
2024/01/11 01:12:07;;;;;;;8.47;3.43;;;;;;;-6.87;100.00;101846.72;4971637;28;20480;-67
2024/01/11 01:14:34;;;;;;;6.33;2.97;;;;;;;-6.89;100.00;101853.38;4963203;28;20964;-67
2024/01/11 01:17:00;;;;;;;7.90;3.50;;;;;;;-6.95;100.00;101843.34;4969155;28;20460;-67
2024/01/11 01:19:27;;;;;;;19.10;8.90;;;;;;;-6.96;100.00;101839.84;4966846;28;20508;-66
2024/01/11 01:21:53;;;;;;;20.77;9.57;;;;;;;-6.96;100.00;101850.16;4968746;28;20540;-66
2024/01/11 01:24:20;;;;;;;24.20;9.57;;;;;;;-7.00;100.00;101845.44;4969079;28;20550;-67
2024/01/11 01:26:46;;;;;;;23.90;10.53;;;;;;;-6.98;100.00;101851.66;4964296;28;20451;-67
2024/01/11 01:29:12;;;;;;;6.80;3.60;;;;;;;-6.95;100.00;101839.09;4969234;28;20441;-66
2024/01/11 01:31:39;;;;;;;13.70;4.30;;;;;;;-6.95;100.00;101848.50;4965881;28;20476;-67
2024/01/11 01:34:07;;;;;;;7.13;3.40;;;;;;;-6.97;100.00;101848.34;4969620;28;20568;-67
2024/01/11 01:36:33;;;;;;;8.53;3.73;;;;;;;-6.96;100.00;101852.72;4968819;28;20437;-67
2024/01/11 01:39:00;;;;;;;7.70;3.67;;;;;;;-6.97;100.00;101840.59;4965594;28;20709;-66
2024/01/11 01:41:26;;;;;;;6.70;3.43;;;;;;;-6.94;100.00;101855.47;4968618;28;20468;-67
2024/01/11 01:43:53;;;;;;;9.53;3.63;;;;;;;-6.99;100.00;101864.38;4969551;28;20445;-67
2024/01/11 01:46:23;;;;;;;10.17;3.30;;;;;;;-6.98;100.00;101861.03;4970221;28;20465;-67
2024/01/11 01:48:53;;;;;;;20.53;8.70;;;;;;;-6.93;100.00;101858.94;4965852;28;20507;-67
2024/01/11 01:51:20;;;;;;;16.10;8.27;;;;;;;-7.01;100.00;101861.63;4970466;28;20475;-67
2024/01/11 01:53:50;;;;;;;21.20;8.97;;;;;;;-7.00;100.00;101865.13;4967091;28;20476;-67
2024/01/11 01:56:19;;;;;;;17.57;4.97;;;;;;;-7.01;100.00;101865.88;4971788;28;20881;-66
2024/01/11 01:58:46;;;;;;;21.90;9.93;;;;;;;-6.99;100.00;101874.66;4970642;28;20964;-67
2024/01/11 02:01:14;;;;;;;17.67;7.60;;;;;;;-7.03;100.00;101878.59;4971755;28;20973;-67
2024/01/11 02:03:41;;;;;;;21.07;9.27;;;;;;;-7.13;100.00;101873.22;4972433;28;20437;-67
2024/01/11 02:06:08;;;;;;;9.13;3.33;;;;;;;-7.17;100.00;101870.16;4969708;28;20460;-66
2024/01/11 02:08:36;;;;;;;18.20;7.57;;;;;;;-7.16;100.00;101872.88;4971896;28;20490;-67
2024/01/11 02:11:03;;;;;;;21.20;9.33;;;;;;;-7.15;100.00;101868.66;4972131;28;20532;-67
2024/01/11 02:13:29;;;;;;;9.43;4.70;;;;;;;-7.18;100.00;101871.81;4974100;28;20509;-67
2024/01/11 02:15:56;;;;;;;20.40;9.97;;;;;;;-7.15;100.00;101877.28;4969753;28;20863;-67
2024/01/11 02:18:22;;;;;;;10.20;3.60;;;;;;;-7.19;100.00;101879.38;4970938;28;20524;-67
2024/01/11 02:20:48;;;;;;;9.07;3.57;;;;;;;-7.22;100.00;101876.44;4972151;28;20464;-67
2024/01/11 02:23:18;;;;;;;20.63;8.70;;;;;;;-7.06;100.00;101887.66;4965410;28;20898;-66
2024/01/11 02:25:45;;;;;;;23.00;10.07;;;;;;;-7.05;100.00;101887.81;4971064;28;20525;-67
2024/01/11 02:28:12;;;;;;;23.40;10.13;;;;;;;-6.95;100.00;101877.72;4966978;28;20453;-67
2024/01/11 02:30:38;;;;;;;21.10;10.27;;;;;;;-6.77;100.00;101886.50;4970259;28;20857;-67
2024/01/11 02:33:05;;;;;;;20.73;9.40;;;;;;;-6.87;100.00;101888.81;4971503;28;21022;-67
2024/01/11 02:35:33;;;;;;;22.47;9.83;;;;;;;-7.02;100.00;101884.63;4969845;28;20441;-67
2024/01/11 02:38:00;;;;;;;22.20;8.63;;;;;;;-7.02;100.00;101893.28;4970073;28;20515;-67
2024/01/11 02:40:28;;;;;;;20.73;10.17;;;;;;;-7.01;100.00;101886.47;4970286;28;20463;-66
2024/01/11 02:42:55;;;;;;;20.43;10.13;;;;;;;-6.96;100.00;101887.88;4966669;28;20464;-67
2024/01/11 02:45:21;;;;;;;22.97;10.60;;;;;;;-7.09;100.00;101882.16;4971741;28;20989;-67
2024/01/11 02:47:47;;;;;;;27.03;10.03;;;;;;;-7.17;100.00;101890.75;4971039;28;20821;-67
2024/01/11 02:50:14;;;;;;;21.43;10.60;;;;;;;-7.24;100.00;101884.00;4969881;28;20512;-67
2024/01/11 02:52:41;;;;;;;23.23;9.13;;;;;;;-7.30;100.00;101891.06;4966333;28;20555;-67
2024/01/11 02:55:07;;;;;;;23.77;9.83;;;;;;;-7.35;100.00;101874.22;4967820;28;20449;-65
2024/01/11 02:57:33;;;;;;;21.10;10.13;;;;;;;-7.19;100.00;101884.53;4966916;28;21655;-67
2024/01/11 03:00:00;;;;;;;21.80;9.97;;;;;;;-7.36;100.00;101868.16;4970300;28;20984;-67
2024/01/11 03:02:27;;;;;;;21.60;9.97;;;;;;;-7.37;100.00;101883.44;4969451;28;20556;-68
2024/01/11 03:04:53;;;;;;;21.37;9.17;;;;;;;-7.42;100.00;101884.59;4962289;28;20456;-67
2024/01/11 03:07:19;;;;;;;21.13;9.60;;;;;;;-7.45;100.00;101881.69;4971126;28;20436;-67
2024/01/11 03:09:46;;;;;;;20.50;9.93;;;;;;;-7.48;100.00;101877.13;4970057;28;20460;-66
2024/01/11 03:12:12;;;;;;;7.97;3.73;;;;;;;-7.50;100.00;101870.91;4969500;28;20554;-67
2024/01/11 03:14:39;;;;;;;6.47;3.30;;;;;;;-7.56;100.00;101859.06;4969748;28;20472;-67
2024/01/11 03:17:05;;;;;;;15.37;8.03;;;;;;;-7.50;100.00;101859.72;4971443;28;20449;-68
2024/01/11 03:19:32;;;;;;;19.47;9.23;;;;;;;-7.48;100.00;101861.72;4970195;28;20467;-67
2024/01/11 03:22:02;;;;;;;19.40;8.87;;;;;;;-7.41;100.00;101865.84;4967328;28;20465;-67
2024/01/11 03:24:29;;;;;;;22.77;10.40;;;;;;;-7.29;100.00;101864.56;4969293;28;20801;-67
2024/01/11 03:26:55;;;;;;;24.37;10.33;;;;;;;-7.37;100.00;101856.03;4971042;28;20449;-66
2024/01/11 03:29:22;;;;;;;23.17;9.67;;;;;;;-7.38;100.00;101855.88;4966775;28;20468;-67
2024/01/11 03:31:48;;;;;;;22.07;10.23;;;;;;;-7.32;100.00;101851.38;4964549;28;20572;-67
2024/01/11 03:34:14;;;;;;;23.17;9.97;;;;;;;-7.39;100.00;101851.47;4969412;28;20508;-67
2024/01/11 03:36:41;;;;;;;22.20;10.60;;;;;;;-7.33;100.00;101862.44;4970879;28;20441;-67
2024/01/11 03:39:07;;;;;;;4.80;3.17;;;;;;;-7.38;100.00;101858.47;4970322;28;20940;-67
2024/01/11 03:41:34;;;;;;;20.60;9.47;;;;;;;-7.29;100.00;101862.00;4965817;28;21055;-67
2024/01/11 03:44:00;;;;;;;20.87;10.00;;;;;;;-7.27;100.00;101866.56;4966672;28;20488;-67
2024/01/11 03:46:27;;;;;;;20.63;9.87;;;;;;;-7.30;100.00;101855.94;4970482;28;20451;-67
2024/01/11 03:48:55;;;;;;;22.23;9.33;;;;;;;-7.28;100.00;101850.97;4964440;28;20549;-66
2024/01/11 03:51:22;;;;;;;8.43;4.20;;;;;;;-7.34;100.00;101855.47;4969654;28;20895;-67
2024/01/11 03:53:48;;;;;;;21.80;9.30;;;;;;;-7.44;100.00;101850.09;4969926;28;20484;-65
2024/01/11 03:56:15;;;;;;;23.53;10.50;;;;;;;-7.29;100.00;101849.13;4969752;28;20449;-67
2024/01/11 03:58:44;;;;;;;22.73;11.17;;;;;;;-7.18;100.00;101852.88;4965144;28;20456;-67
2024/01/11 04:01:11;;;;;;;22.43;9.90;;;;;;;-7.31;100.00;101851.56;4963665;28;20484;-66
2024/01/11 04:03:37;;;;;;;22.90;10.20;;;;;;;-7.36;100.00;101857.88;4968430;28;20456;-66
2024/01/11 04:06:04;;;;;;;23.30;10.63;;;;;;;-7.40;100.00;101865.09;4965765;28;20473;-67
2024/01/11 04:08:31;;;;;;;22.20;9.50;;;;;;;-7.35;100.00;101869.06;4965478;28;20524;-67
2024/01/11 04:10:58;;;;;;;24.17;10.73;;;;;;;-7.26;100.00;101867.47;4967240;28;20463;-67
2024/01/11 04:13:24;;;;;;;24.77;9.77;;;;;;;-7.28;100.00;101864.75;4967124;28;20481;-67
2024/01/11 04:15:51;;;;;;;23.47;10.80;;;;;;;-7.25;100.00;101871.88;4967666;28;20540;-67
2024/01/11 04:18:17;;;;;;;19.67;9.17;;;;;;;-7.33;100.00;101865.91;4967612;28;20460;-67
2024/01/11 04:20:44;;;;;;;22.87;10.07;;;;;;;-7.40;100.00;101867.66;4968532;28;21048;-67
2024/01/11 04:23:10;;;;;;;22.50;9.70;;;;;;;-7.48;100.00;101871.09;4969606;28;20782;-67
2024/01/11 04:25:37;;;;;;;20.20;9.77;;;;;;;-7.57;100.00;101860.72;4966160;28;20491;-67
2024/01/11 04:28:03;;;;;;;26.87;10.57;;;;;;;-7.56;100.00;101870.25;4969540;28;20520;-67
2024/01/11 04:30:31;;;;;;;10.33;3.80;;;;;;;-7.45;100.00;101869.75;4967239;28;20993;-67
2024/01/11 04:32:57;;;;;;;19.93;8.90;;;;;;;-7.47;100.00;101873.81;4967923;28;20544;-67
2024/01/11 04:35:24;;;;;;;21.70;9.67;;;;;;;-7.49;100.00;101877.88;4966022;28;20467;-67
2024/01/11 04:37:50;;;;;;;23.20;10.77;;;;;;;-7.52;100.00;101867.28;4969069;28;20456;-67
2024/01/11 04:40:17;;;;;;;21.93;9.13;;;;;;;-7.52;100.00;101879.22;4967580;28;20473;-66
2024/01/11 04:42:43;;;;;;;23.93;9.63;;;;;;;-7.56;100.00;101880.56;4965230;28;20484;-67
2024/01/11 04:45:09;;;;;;;25.60;11.17;;;;;;;-7.70;100.00;101857.53;4966727;28;20540;-67
2024/01/11 04:47:37;;;;;;;23.03;9.90;;;;;;;-7.66;100.00;101872.56;4966376;28;20990;-67
2024/01/11 04:50:05;;;;;;;22.80;10.67;;;;;;;-7.69;100.00;101873.13;4964910;28;20489;-68
2024/01/11 04:52:31;;;;;;;20.90;10.03;;;;;;;-7.78;100.00;101859.28;4969435;28;21003;-67
2024/01/11 04:54:58;;;;;;;19.43;9.90;;;;;;;-7.82;100.00;101856.22;4972535;28;20571;-65
2024/01/11 04:57:24;;;;;;;22.53;9.87;;;;;;;-7.78;100.00;101860.94;4967601;28;20453;-67
2024/01/11 04:59:50;;;;;;;7.57;3.50;;;;;;;-7.78;100.00;101866.09;4965244;28;20600;-66
2024/01/11 05:02:17;;;;;;;27.13;11.97;;;;;;;-7.64;100.00;101869.41;4968292;28;20602;-67
2024/01/11 05:04:43;;;;;;;23.50;10.47;;;;;;;-7.50;100.00;101875.16;4968897;28;20436;-67
2024/01/11 05:07:10;;;;;;;18.90;7.20;;;;;;;-7.52;100.00;101876.66;4968027;28;20441;-66
2024/01/11 05:09:36;;;;;;;21.30;9.97;;;;;;;-7.44;100.00;101881.88;4967198;28;20458;-67
2024/01/11 05:12:03;;;;;;;23.97;10.00;;;;;;;-7.42;100.00;101892.31;4963384;28;20465;-68
2024/01/11 05:14:29;;;;;;;22.97;10.73;;;;;;;-7.45;100.00;101877.47;4968626;28;20492;-66
2024/01/11 05:16:56;;;;;;;19.33;9.33;;;;;;;-7.58;100.00;101874.34;4968480;28;20468;-66
2024/01/11 05:19:22;;;;;;;19.67;10.13;;;;;;;-7.65;100.00;101879.53;4968815;28;20441;-67
2024/01/11 05:21:49;;;;;;;21.57;10.07;;;;;;;-7.67;100.00;101878.44;4970235;28;20868;-67
2024/01/11 05:24:16;;;;;;;23.97;10.30;;;;;;;-7.71;100.00;101878.88;4969172;28;20476;-66
2024/01/11 05:26:42;;;;;;;18.20;8.57;;;;;;;-7.75;100.00;101889.56;4972560;28;20436;-66
2024/01/11 05:29:09;;;;;;;18.30;9.60;;;;;;;-7.87;100.00;101877.94;4972932;28;20445;-68
2024/01/11 05:31:35;;;;;;;18.60;9.20;;;;;;;-7.93;100.00;101880.75;4969133;28;20913;-67
2024/01/11 05:34:02;;;;;;;22.27;9.77;;;;;;;-7.96;100.00;101883.00;4969310;28;20996;-66
2024/01/11 05:36:29;;;;;;;20.43;9.60;;;;;;;-7.90;100.00;101894.88;4971751;28;20449;-67
2024/01/11 05:38:55;;;;;;;27.53;11.30;;;;;;;-7.64;100.00;101895.13;4971373;28;20448;-67
2024/01/11 05:41:22;;;;;;;25.07;10.33;;;;;;;-7.55;100.00;101889.19;4966104;28;20477;-67
2024/01/11 05:43:48;;;;;;;26.50;11.27;;;;;;;-7.71;100.00;101864.34;4970488;28;20485;-67
2024/01/11 05:46:15;;;;;;;25.83;12.13;;;;;;;-7.78;100.00;101877.28;4971833;28;20810;-66
2024/01/11 05:48:42;;;;;;;25.70;11.50;;;;;;;-7.78;100.00;101895.28;4971933;28;20449;-66
2024/01/11 05:51:09;;;;;;;27.80;11.90;;;;;;;-7.85;100.00;101897.03;4967673;28;20472;-67
2024/01/11 05:53:36;;;;;;;22.87;11.10;;;;;;;-7.79;100.00;101900.25;4967247;28;20481;-68
2024/01/11 05:56:07;;;;;;;25.40;11.13;;;;;;;-7.75;100.00;101908.47;4970684;28;21035;-66
2024/01/11 05:58:34;;;;;;;28.77;12.57;;;;;;;-7.67;100.00;101905.06;4970510;28;20452;-67
2024/01/11 06:01:00;;;;;;;23.63;11.03;;;;;;;-7.59;100.00;101903.38;4966845;28;20508;-67
2024/01/11 06:03:28;;;;;;;27.67;12.70;;;;;;;-7.57;100.00;101906.09;4968976;28;20456;-65
2024/01/11 06:05:54;;;;;;;27.20;12.37;;;;;;;-7.55;100.00;101913.25;4969824;28;20531;-67
2024/01/11 06:08:20;;;;;;;28.43;12.30;;;;;;;-7.64;100.00;101915.69;4971731;28;21403;-65
2024/01/11 06:10:47;;;;;;;24.07;11.73;;;;;;;-7.77;100.00;101917.69;4967411;28;20472;-66
2024/01/11 06:13:13;;;;;;;24.50;10.57;;;;;;;-7.93;100.00;101904.81;4975609;28;20464;-67
2024/01/11 06:15:40;;;;;;;26.00;12.03;;;;;;;-7.97;100.00;101930.94;4971544;28;20940;-67
2024/01/11 06:18:08;;;;;;;26.60;12.23;;;;;;;-7.83;100.00;101927.28;4969499;28;20851;-65
2024/01/11 06:20:35;;;;;;;25.40;12.17;;;;;;;-7.84;100.00;101935.75;4963123;28;20484;-67
2024/01/11 06:23:02;;;;;;;24.90;11.80;;;;;;;-7.87;100.00;101943.13;4971945;28;20810;-67
2024/01/11 06:25:29;;;;;;;25.27;11.87;;;;;;;-7.87;100.00;101942.22;4972130;28;20440;-68
2024/01/11 06:27:55;;;;;;;27.23;11.97;;;;;;;-7.80;100.00;101952.44;4968987;28;20469;-67
2024/01/11 06:30:22;;;;;;;26.53;11.90;;;;;;;-7.76;100.00;101954.59;4968560;28;20487;-67
2024/01/11 06:32:48;;;;;;;21.23;10.63;;;;;;;-7.82;100.00;101959.06;4970181;28;21200;-70
2024/01/11 06:35:15;;;;;;;26.90;11.17;;;;;;;-7.90;100.00;101964.28;4971206;28;20477;-67
2024/01/11 06:37:41;;;;;;;26.27;12.73;;;;;;;-7.84;100.00;101950.28;4971157;28;20465;-68
2024/01/11 06:40:08;;;;;;;26.73;12.83;;;;;;;-7.66;100.00;101962.56;4965000;28;20479;-68
2024/01/11 06:42:35;;;;;;;27.97;11.47;;;;;;;-7.63;100.00;101957.75;4970080;28;20487;-68
2024/01/11 06:45:01;;;;;;;26.00;11.67;;;;;;;-7.75;100.00;101967.63;4970760;28;20445;-66
2024/01/11 06:47:29;;;;;;;24.10;11.50;;;;;;;-7.85;100.00;101963.88;4970282;28;20433;-67
2024/01/11 06:49:56;;;;;;;24.93;11.53;;;;;;;-7.93;100.00;101973.31;4965943;28;20518;-69
2024/01/11 06:52:22;;;;;;;24.40;11.57;;;;;;;-7.98;100.00;101966.75;4965581;28;20450;-66
2024/01/11 06:54:49;;;;;;;27.27;11.77;;;;;;;-8.00;100.00;101964.00;4969437;28;20481;-69
2024/01/11 06:57:16;;;;;;;24.00;10.63;;;;;;;-8.01;100.00;101958.66;4967461;28;20440;-69
2024/01/11 06:59:43;;;;;;;22.37;11.27;;;;;;;-8.04;100.00;101969.50;4966000;28;20463;-67
2024/01/11 07:02:10;;;;;;;23.70;11.23;;;;;;;-8.02;100.00;101978.31;4970140;28;20524;-67
2024/01/11 07:04:37;;;;;;;25.97;11.30;;;;;;;-8.01;100.00;101979.22;4965792;28;20523;-66
2024/01/11 07:07:04;;;;;;;24.13;11.20;;;;;;;-8.04;100.00;101989.16;4965562;28;20468;-68
2024/01/11 07:09:31;;;;;;;24.77;11.67;;;;;;;-7.96;100.00;101986.72;4967169;28;20940;-67
2024/01/11 07:11:57;;;;;;;22.20;9.90;;;;;;;-7.90;100.00;101983.94;4961414;28;21074;-66
2024/01/11 07:14:24;;;;;;;22.00;10.37;;;;;;;-7.95;100.00;101979.94;4968579;28;20491;-67
2024/01/11 07:16:50;;;;;;;22.37;10.00;;;;;;;-7.98;100.00;101985.66;4969050;28;20790;-66
2024/01/11 07:19:17;;;;;;;17.93;8.97;;;;;;;-7.98;100.00;101977.94;4971362;28;20447;-69
2024/01/11 07:21:43;;;;;;;24.30;11.13;;;;;;;-7.88;100.00;101982.44;4967188;28;20509;-67
2024/01/11 07:24:10;;;;;;;23.93;9.73;;;;;;;-7.89;100.00;101980.63;4971238;28;21008;-67
2024/01/11 07:26:37;;;;;;;22.57;10.73;;;;;;;-7.83;100.00;101983.84;4970459;28;20448;-65
2024/01/11 07:29:03;;;;;;;22.53;10.90;;;;;;;-7.80;100.00;101983.28;4970174;28;20527;-66
2024/01/11 07:31:29;;;;;;;24.60;11.33;;;;;;;-7.83;100.00;101977.81;4969075;28;20472;-67
2024/01/11 07:33:56;;;;;;;24.67;10.77;;;;;;;-7.85;100.00;101990.50;4960618;28;20484;-68
2024/01/11 07:36:22;;;;;;;21.93;11.30;;;;;;;-7.76;100.00;101982.88;4964866;28;20987;-67
2024/01/11 07:38:49;;;;;;;25.20;11.03;;;;;;;-7.76;100.00;101983.78;4968316;28;20507;-69
2024/01/11 07:41:15;;;;;;;22.70;9.97;;;;;;;-7.75;100.00;101988.19;4971106;28;20456;-69
2024/01/11 07:43:43;;;;;;;23.70;10.43;;;;;;;-7.74;100.00;101983.97;4967981;28;20460;-69
2024/01/11 07:46:19;;;;;;;27.53;11.27;;;;;;;-7.72;100.00;101987.63;4970866;28;20515;-69
2024/01/11 07:49:01;;;;;;;29.83;11.57;;;;;;;-7.65;100.00;101995.25;4965330;28;20449;-69
2024/01/11 07:51:28;;;;;;;18.60;9.10;;;;;;;-7.57;100.00;101994.47;4970671;28;20457;-69
2024/01/11 07:53:54;;;;;;;27.83;11.63;;;;;;;-7.56;100.00;101997.97;4967682;28;20486;-68
2024/01/11 07:56:20;;;;;;;43.03;18.33;;;;;;;-7.34;100.00;101999.56;4971181;28;20440;-67
2024/01/11 07:58:47;;;;;;;54.27;19.70;;;;;;;-7.31;100.00;101990.50;4969506;28;20449;-69
2024/01/11 08:01:16;;;;;;;16.07;6.63;;;;;;;-7.27;100.00;101999.47;4971061;28;20452;-68
2024/01/11 08:03:44;;;;;;;30.13;13.47;;;;;;;-7.29;100.00;101994.16;4965280;28;20859;-70
2024/01/11 08:06:11;;;;;;;68.67;25.50;;;;;;;-7.25;100.00;101995.41;4967043;28;20437;-68
2024/01/11 08:08:38;;;;;;;15.33;6.93;;;;;;;-7.10;100.00;102001.31;4970213;28;20978;-68
2024/01/11 08:11:08;;;;;;;26.07;12.60;;;;;;;-7.06;100.00;101982.88;4970527;28;20489;-68
2024/01/11 08:13:37;;;;;;;34.83;15.40;;;;;;;-6.88;100.00;102007.13;4971724;28;20457;-69
2024/01/11 08:16:04;;;;;;;25.57;11.63;;;;;;;-6.84;100.00;101999.88;4970866;28;20437;-69
2024/01/11 08:18:31;;;;;;;31.90;13.50;;;;;;;-6.84;100.00;101993.81;4965428;28;20472;-69
2024/01/11 08:20:57;;;;;;;27.80;12.27;;;;;;;-6.85;100.00;101992.00;4970193;28;20813;-68
2024/01/11 08:23:24;;;;;;;37.30;15.70;;;;;;;-6.70;100.00;101992.00;4970886;28;20524;-67
2024/01/11 08:25:52;;;;;;;31.67;14.37;;;;;;;-6.68;100.00;101979.28;4970596;28;20460;-69
2024/01/11 08:28:20;;;;;;;36.13;14.63;;;;;;;-6.54;100.00;101986.81;4965955;28;20781;-69
2024/01/11 08:30:46;;;;;;;6.47;4.10;;;;;;;-6.50;100.00;101986.38;4968814;28;20465;-69
2024/01/11 08:33:13;;;;;;;29.40;13.80;;;;;;;-6.41;100.00;101995.06;4970963;28;20924;-69
2024/01/11 08:35:41;;;;;;;27.03;10.67;;;;;;;-6.18;100.00;101992.34;4970155;28;20490;-68
2024/01/11 08:38:08;;;;;;;31.23;13.73;;;;;;;-6.09;100.00;101987.25;4968530;28;20464;-71
2024/01/11 08:40:35;;;;;;;33.53;13.70;;;;;;;-5.90;100.00;101996.16;4961780;28;20556;-67
2024/01/11 08:43:02;;;;;;;33.00;13.73;;;;;;;-5.92;100.00;101992.50;4970357;28;20440;-69
2024/01/11 08:45:29;;;;;;;29.90;13.97;;;;;;;-5.93;100.00;101982.03;4966758;28;20581;-69
2024/01/11 08:47:56;;;;;;;30.13;14.00;;;;;;;-5.94;100.00;101985.38;4969376;28;20468;-68
2024/01/11 08:50:23;;;;;;;13.40;3.17;;;;;;;-5.93;100.00;101987.19;4963808;28;20460;-69
2024/01/11 08:52:55;;;;;;;10.70;4.00;;;;;;;-5.82;100.00;101986.59;4967646;28;20461;-68
2024/01/11 08:55:21;;;;;;;4.97;3.20;;;;;;;-5.72;100.00;101992.84;4959311;28;20563;-68
2024/01/11 08:57:47;;;;;;;7.37;3.53;;;;;;;-5.48;100.00;102003.88;4968323;28;20537;-69
2024/01/11 09:00:17;;;;;;;35.20;14.70;;;;;;;-5.46;100.00;102003.28;4972392;28;20461;-68
2024/01/11 09:02:45;;;;;;;31.77;14.33;;;;;;;-5.35;100.00;102006.97;4970376;28;20834;-67
2024/01/11 09:05:14;;;;;;;8.30;3.77;;;;;;;-5.20;100.00;102015.38;4968001;28;20556;-69
2024/01/11 09:07:40;;;;;;;10.80;4.30;;;;;;;-5.12;100.00;102012.81;4965572;28;20473;-68
2024/01/11 09:10:11;;;;;;;34.33;14.93;;;;;;;-5.07;100.00;102010.69;4969505;28;21017;-67
2024/01/11 09:12:37;;;;;;;17.13;4.87;;;;;;;-5.02;100.00;102018.88;4968612;28;20486;-67
2024/01/11 09:15:04;;;;;;;9.90;3.73;;;;;;;-4.87;100.00;102023.00;4961900;28;20491;-69
2024/01/11 09:17:31;;;;;;;16.57;4.63;;;;;;;-4.85;100.00;102019.81;4964969;28;20445;-67
2024/01/11 09:19:57;;;;;;;9.47;4.90;;;;;;;-4.74;100.00;102024.41;4970831;28;21007;-68
2024/01/11 09:22:24;;;;;;;33.60;15.07;;;;;;;-4.60;100.00;102028.34;4967187;28;20441;-68
2024/01/11 09:24:50;;;;;;;13.70;4.93;;;;;;;-4.53;100.00;102024.69;4967435;28;20528;-68
2024/01/11 09:27:17;;;;;;;10.63;5.20;;;;;;;-4.39;100.00;102018.34;4955759;28;20454;-69
2024/01/11 09:29:44;;;;;;;32.83;15.00;;;;;;;-4.25;100.00;102018.91;4968820;28;20446;-68
2024/01/11 09:32:12;;;;;;;32.93;15.33;;;;;;;-4.22;100.00;102024.38;4969485;28;20438;-68
2024/01/11 09:34:38;;;;;;;32.93;14.00;;;;;;;-4.19;100.00;102018.59;4969433;28;20994;-69
2024/01/11 09:37:05;;;;;;;34.93;15.13;;;;;;;-4.10;100.00;102011.72;4962940;28;20547;-69
2024/01/11 09:39:31;;;;;;;16.37;4.50;;;;;;;-4.02;100.00;102009.88;4967373;28;21000;-68
2024/01/11 09:42:05;;;;;;;12.20;5.33;;;;;;;-3.92;100.00;102007.44;4941219;28;20464;-65
2024/01/11 09:44:33;;;;;;;17.57;5.40;;;;;;;-3.74;100.00;102005.69;4961992;28;20430;-69
2024/01/11 09:47:01;;;;;;;7.63;3.97;;;;;;;-3.69;100.00;101994.09;4965374;28;20515;-68
2024/01/11 09:49:30;;;;;;;14.07;5.30;;;;;;;-3.70;100.00;102011.31;4963200;28;20439;-67
2024/01/11 09:51:57;;;;;;;12.20;4.57;;;;;;;-3.63;100.00;102005.03;4966807;28;20987;-69
2024/01/11 09:54:25;;;;;;;37.03;15.23;;;;;;;-3.48;100.00;102016.88;4965210;28;20441;-70
2024/01/11 09:56:54;;;;;;;23.27;6.77;;;;;;;-3.36;100.00;102030.06;4965799;28;20477;-68
2024/01/11 09:59:24;;;;;;;16.40;7.77;;;;;;;-3.38;100.00;102011.78;4965673;28;20463;-68
2024/01/11 10:01:51;;;;;;;19.30;6.57;;;;;;;-3.28;100.00;102017.06;4965319;28;21036;-70
2024/01/11 10:04:17;;;;;;;13.37;5.77;;;;;;;-3.18;100.00;102014.59;4967702;28;20443;-68
2024/01/11 10:06:44;;;;;;;17.37;5.80;;;;;;;-2.94;100.00;102026.31;4965076;28;20464;-66
2024/01/11 10:09:12;;;;;;;15.90;6.47;;;;;;;-2.93;100.00;102022.97;4969533;28;20468;-69
2024/01/11 10:11:39;;;;;;;15.87;5.83;;;;;;;-2.92;100.00;102026.47;4967496;28;20803;-69
2024/01/11 10:14:06;;;;;;;13.40;6.03;;;;;;;-2.86;100.00;102034.78;4974400;28;20448;-68
2024/01/11 10:16:33;;;;;;;17.27;7.37;;;;;;;-2.87;100.00;102028.69;4971265;28;20488;-69
2024/01/11 10:18:59;;;;;;;19.63;7.13;;;;;;;-2.83;100.00;102027.31;4968359;28;20744;-70
2024/01/11 10:21:27;;;;;;;14.40;7.10;;;;;;;-2.77;100.00;102035.69;4969312;28;20463;-68
2024/01/11 10:23:53;;;;;;;14.50;6.30;;;;;;;-2.53;100.00;102024.94;4969779;28;20205;-66
2024/01/11 10:26:21;;;;;;;19.67;6.83;;;;;;;-2.52;100.00;102021.59;4969510;28;20441;-71
2024/01/11 10:28:48;;;;;;;18.07;7.77;;;;;;;-2.57;100.00;102009.88;4969250;28;20661;-69
2024/01/11 10:31:18;;;;;;;26.23;9.30;;;;;;;-2.52;100.00;101999.94;4970413;28;20461;-67
2024/01/11 10:33:45;;;;;;;35.43;16.20;;;;;;;-2.39;100.00;101992.50;4969997;28;20935;-68
2024/01/11 10:36:11;;;;;;;10.30;5.90;;;;;;;-2.36;100.00;101985.00;4970756;28;20480;-68
2024/01/11 10:38:39;;;;;;;16.70;6.93;;;;;;;-2.27;100.00;101974.53;4968864;28;20462;-69
2024/01/11 10:41:07;;;;;;;14.67;6.77;;;;;;;-2.23;100.00;101974.94;4966314;28;20482;-70
2024/01/11 10:43:38;;;;;;;16.63;8.00;;;;;;;-2.06;100.00;101980.72;4964990;28;20209;-69
2024/01/11 10:46:06;;;;;;;18.77;6.80;;;;;;;-1.97;100.00;101978.94;4969291;28;20260;-69
2024/01/11 10:48:44;;;;;;;15.30;6.33;;;;;;;-1.78;100.00;101965.88;4971028;28;20201;-69
2024/01/11 10:51:15;;;;;;;28.83;7.77;;;;;;;-1.70;100.00;101972.66;4964192;28;20311;-69
2024/01/11 10:53:45;;;;;;;14.03;6.07;;;;;;;-1.56;100.00;101966.09;4969549;28;20271;-68
2024/01/11 10:56:13;;;;;;;22.03;7.10;;;;;;;-1.50;100.00;101977.91;4970656;28;20213;-71
2024/01/11 10:58:41;;;;;;;15.33;7.67;;;;;;;-1.59;100.00;101975.44;4967279;28;20212;-69
2024/01/11 11:01:08;;;;;;;26.20;7.50;;;;;;;-1.57;100.00;101959.97;4963958;28;20316;-70
2024/01/11 11:03:35;;;;;;;21.63;7.07;;;;;;;-1.43;100.00;101964.66;4967791;28;20201;-68
2024/01/11 11:06:03;;;;;;;18.07;6.60;;;;;;;-1.35;100.00;101966.22;4953157;28;20202;-68